Aérodrome :
LOGIN :

S'inscrire | Disclaimer

   EN    FR    IT 

 










Légende :    VFR   VFR Marginal   IFR   IFR Intensif   IFR Très Intensif
Visi : 
Plafond : 
>= 8 km
>= 3000ft
5 à 8 km
1000 à 3000 ft
1500m à 5 km
500 à 1000 ft
800 à 1500m
200 à 500 ft
< 800m
< 200 ft
Symboles :   Orages  Brouillard  Fortes neiges  Fortes précipitations  Vent > 20 kt
SIGMETs :   Divers  Orages  Givrage  Turbulence  Onde Orograph.  Cendres Volcan.







- Altitude de l'aérodrome : 287 ft
- Voir les cartes d'approche


LFRL - Lanveoc Poulmic

DERNIER METAR :
  • 180500Z AUTO 08002KT 9999 OVC048 14/13 Q1019 TEMPO 4000 BR

METARs EXPIRÉS :
  • 180430Z AUTO 10003KT 9999 OVC048 14/13 Q1019 TEMPO 4000 BR
  • 180400Z AUTO VRB02KT 9999 OVC048 13/13 Q1019 TEMPO 4000 BR
  • 180330Z AUTO 10002KT 9999 OVC049 13/12 Q1019 TEMPO 4000 BR
  • 180300Z AUTO 09002KT CAVOK 13/13 Q1019 TEMPO 4000 BR
  • 180230Z AUTO VRB03KT CAVOK 12/12 Q1019 TEMPO 4000 BR
  • 180200Z AUTO 14001KT CAVOK 13/12 Q1019 NOSIG

TAF TAF LFRL
Valide du 17 à 12h jusqu'au 18 à 12h UTC


171100Z 1712/1812 28008KT 9999 BKN035 OVC060
TEMPO 1804/1806 4000 BR
Pas de NOTAMs connus pour ce terrain.



MET'MAP, la Météo Aéronautique d'un coup d'oeil ! - Copyright ORBIFLY Décembre 2007 - Disclaimer

ORBIFLY MET'MAP TEAM :

Programmation & Développement : Alexandra Zaïnal
Conception & Développement : Baudouin d'Aumeries
Co-Programmation & Développement : Marc-Olivier Méhu
Soutien technique & logistique : Manuel Goepfert

Contact : metmap@orbifly.com




SOURCES & CREDITS :

   NOAA